Airdrie Aerodrome

CEF4 · Alberta, Canada

2 oktober 2022

Tijd Code Weer Temp. Zicht Plafond Wind METAR/SPECI
06:00
V
5 °C 15 mi - 190° 190° 6 kt METAR CYYC 021200Z 19006KT 15SM SKC 05/04 A3003 RMK SLP183
05:00
V
7 °C 15 mi - 210° 210° 6 kt METAR CYYC 021100Z 21006KT 15SM FEW140 07/06 A3004 RMK AC1 AC TR SLP181
04:00
V
7 °C 15 mi - 180° 180° 5 kt METAR CYYC 021000Z 18005KT 15SM FEW140 07/06 A3005 RMK AC1 AC TR SLP185
03:00
V
9 °C 15 mi - 180° 180° 5 kt METAR CYYC 020900Z 18005KT 15SM SKC 09/07 A3007 RMK SLP188 DENSITY ALT 3700FT
02:00
V
9 °C 15 mi - 190° 190° 6 kt METAR CYYC 020800Z 19006KT 15SM SKC 09/07 A3007 RMK SLP192
01:00
V
10 °C 15 mi - 190° 190° 6 kt METAR CYYC 020700Z 19006KT 15SM SKC 10/07 A3009 RMK SLP200 DENSITY ALT 3700FT
00:00
V
10 °C 15 mi - 190° 190° 7 kt METAR CYYC 020600Z 19007KT 15SM SKC 10/07 A3010 RMK SLP203 DENSITY ALT 3800FT

1 oktober 2022

Tijd Code Weer Temp. Zicht Plafond Wind METAR/SPECI
23:00
V
11 °C 15 mi - 180° 180° 7 kt METAR CYYC 020500Z 18007KT 15SM SKC 11/07 A3011 RMK SLP209 DENSITY ALT 3800FT
22:00
V
12 °C 15 mi - 180° 180° 8 kt METAR CYYC 020400Z 18008KT 15SM SKC 12/07 A3011 RMK SLP215 DENSITY ALT 4000FT
21:00
V
14 °C 15 mi - 170° 170° 8 kt METAR CYYC 020300Z 17008KT 15SM FEW230 14/07 A3012 RMK CI1 CI TR SLP220 DENSITY ALT 4100FT
20:00
V
16 °C 20 mi - 160° 160° 9 kt METAR CYYC 020200Z 16009KT 20SM FEW095 FEW220 16/07 A3013 RMK AC1CI1 AC TR SLP221 DENSITY ALT 4400FT
19:00
V
18 °C 20 mi - 160° 160° 12 kt METAR CYYC 020100Z 16012KT 20SM FEW044 FEW130 FEW230 18/08 A3013 RMK CU1AC1CI1 CU TR AC TR CI TR SLP218 DENSITY ALT 4600FT
18:00
V
20 °C 20 mi - 160° 160° 13 kt METAR CYYC 020000Z 16013KT 20SM FEW054 FEW130 FEW230 20/07 A3014 RMK CU1AC1CI1 CU TR AC TR CI TR SLP216 DENSITY ALT 4900FT
17:00
V
22 °C 20 mi - 150° 150° 11 kt METAR CYYC 012300Z 15011KT 20SM FEW057 22/08 A3014 RMK CU1 CU TR TCU ASOCTD SLP217 DENSITY ALT 5000FT
16:00
V
21 °C 20 mi - 170° 170° 12 kt METAR CYYC 012200Z 17012KT 130V200 20SM FEW057 21/07 A3016 RMK CU1 CU TR SLP221 DENSITY ALT 5000FT
15:00
V
21 °C 20 mi - 180° 180° 8 kt METAR CYYC 012100Z 18008KT 140V200 20SM FEW052 21/08 A3017 RMK CU1 CU TR SLP227 DENSITY ALT 4900FT
14:00
V
20 °C 20 mi - 180° 180° 7 kt METAR CYYC 012000Z 18007KT 130V190 20SM FEW050 20/08 A3019 RMK CU1 CU TR SLP235 DENSITY ALT 4700FT
13:00
V
18 °C 20 mi - 200° 200° 5 kt METAR CYYC 011900Z 20005KT 140V220 20SM SKC 18/08 A3021 RMK SLP242 DENSITY ALT 4500FT
12:00
V
16 °C 20 mi - 160° 160° 6 kt METAR CYYC 011800Z 16006KT 140V220 20SM SKC 16/08 A3023 RMK SLP252 DENSITY ALT 4300FT
11:00
V
14 °C 20 mi - 190° 190° 4 kt METAR CYYC 011700Z 19004KT 170V230 20SM SKC 14/08 A3025 RMK SLP260 DENSITY ALT 4000FT
10:00
V
10 °C 20 mi - 190° 190° 2 kt METAR CYYC 011600Z 19002KT 20SM SKC 10/07 A3025 RMK SLP264
09:00
V
7 °C 20 mi - Var 000° 0 kt METAR CYYC 011500Z 00000KT 20SM SKC 07/06 A3025 RMK SLP268
08:00
V
6 °C 20 mi - 200° 200° 2 kt METAR CYYC 011400Z 20002KT 20SM BCFG MIFG SKC 06/05 A3025 RMK SLP271
07:00
V
6 °C 15 mi - Var 000° 0 kt METAR CYYC 011300Z 00000KT 15SM FEW130 06/05 A3025 RMK AC1 AC TR SLP266
06:00
V
7 °C 15 mi - Var Var 2 kt METAR CYYC 011200Z VRB02KT 15SM SKC 07/06 A3026 RMK SLP268
05:00
V
6 °C 15 mi - Var 000° 0 kt METAR CYYC 011100Z 00000KT 15SM SKC 06/06 A3026 RMK SLP267
04:00
V
7 °C 15 mi - Var 000° 0 kt METAR CYYC 011000Z 00000KT 15SM SKC 07/07 A3026 RMK SLP265
03:00
V
7 °C 15 mi - Var 000° 0 kt METAR CYYC 010900Z 00000KT 15SM FEW130 07/06 A3026 RMK AC1 AC TR SLP267
02:00
V
8 °C 10 mi - Var Var 2 kt METAR CYYC 010800Z VRB02KT 10SM SCT130 08/06 A3026 RMK AC3 SLP265
01:00
V
9 °C 10 mi - Var Var 2 kt METAR CYYC 010700Z VRB02KT 10SM SCT130 09/07 A3026 RMK AC4 SLP265
00:00
V
10 °C 10 mi - Var 000° 0 kt METAR CYYC 010600Z 00000KT 10SM FEW022 FEW092 10/07 A3026 RMK SC1AC1 AC TR SLP264

30 september 2022

Tijd Code Weer Temp. Zicht Plafond Wind METAR/SPECI
23:00
M
10 °C 10 mi 2.700 ft 320° 320° 6 kt METAR CYYC 010500Z 32006KT 10SM BKN027 10/08 A3027 RMK SC5 SLP268
22:00
V
11 °C 10 mi - 340° 340° 5 kt METAR CYYC 010400Z 34005KT 10SM FEW087 11/08 A3025 RMK AC1 AC TR SLP263
21:00
V
12 °C 10 mi 9.200 ft 340° 340° 5 kt METAR CYYC 010300Z 34005KT 10SM FEW028 BKN092 12/09 A3024 RMK SC1AC5 SC TR SLP258 DENSITY ALT 3700FT
20:00
V
12 °C 10 mi - 010° 010° 6 kt METAR CYYC 010200Z 01006KT 10SM FEW027 FEW120 FEW240 12/08 A3022 RMK SC1AC2CI1 SC TR CI TR SLP252 DENSITY ALT 3800FT
19:00
V
14 °C 12 mi 12.000 ft 040° 040° 7 kt METAR CYYC 010100Z 04007KT 12SM FEW025 BKN120 BKN250 14/09 A3021 RMK SC1AC6CI1 SC TR SLP243 DENSITY ALT 4000FT
18:00
V
14 °C 15 mi 11.000 ft 040° 040° 9 kt METAR CYYC 010000Z 04009KT 15SM FEW024 BKN110 BKN250 14/09 A3020 RMK SC1AC6CI1 SC TR SLP239 DENSITY ALT 4100FT
17:00
V
15 °C 15 mi 11.000 ft 020° 020° 9 kt METAR CYYC 302300Z 02009KT 350V050 15SM FEW024 BKN110 15/09 A3020 RMK SC1AC6 SLP240 DENSITY ALT 4200FT
16:00
V
15 °C 15 mi 11.000 ft 020° 020° 12 kt METAR CYYC 302200Z 02012KT 15SM FEW020 BKN110 15/09 A3019 RMK SC2AC5 SLP238 DENSITY ALT 4200FT
15:00
V
15 °C 10 mi 11.000 ft 360° 360° 16 - 22 kt METAR CYYC 302100Z 36016G22KT 10SM FEW018 BKN110 BKN250 15/09 A3019 RMK SC2AC5CC1 CC TR SLP237 DENSITY ALT 4200FT
14:00
V
16 °C 12 mi 12.000 ft 360° 360° 16 kt METAR CYYC 302000Z 36016KT 12SM FEW020 BKN120 BKN250 16/09 A3019 RMK SC2AC5CI1 CI TR SLP235 DENSITY ALT 4300FT
13:00
M
15 °C 12 mi 1.800 ft 350° 350° 16 kt METAR CYYC 301900Z 35016KT 12SM BKN018 BKN100 15/09 A3019 RMK SC5AC2 SLP235 DENSITY ALT 4200FT
12:00
M
15 °C 12 mi 1.800 ft 360° 360° 16 kt METAR CYYC 301800Z 36016KT 12SM BKN018 BKN140 15/09 A3019 RMK SC5AC2 SLP235 DENSITY ALT 4100FT
11:35
M
14 °C 15 mi 1.600 ft 360° 360° 17 kt METAR CYYC 301735Z 36017KT 15SM BKN016 BKN140 14/09 A3018 RMK SC6AC1 SLP233 DENSITY ALT 4100FT
11:00
M
13 °C 10 mi 1.400 ft 360° 360° 17 - 22 kt METAR CYYC 301700Z 36017G22KT 10SM BKN014 13/09 A3017 RMK SC7 SLP230 DENSITY ALT 4000FT
10:19
M
13 °C 12 mi 1.400 ft 350° 350° 19 kt METAR CYYC 301619Z 35019KT 12SM BKN014 BKN140 13/09 A3017 RMK SC6AC1 SLP230 DENSITY ALT 3900FT
10:00
M
13 °C 10 mi 1.500 ft 360° 360° 12 - 19 kt METAR CYYC 301600Z 36012G19KT 10SM BKN015 BKN087 BKN140 13/09 A3017 RMK SC6AC1AC1 AC TR SLP232 DENSITY ALT 3900FT
09:29
V
12 °C 9 mi 14.000 ft 340° 340° 9 - 15 kt METAR CYYC 301529Z 34009G15KT 9SM FEW014 SCT086 BKN140 12/08 A3017 RMK SC2AC2AC2 SLP233 DENSITY ALT 3800FT
09:00
M
12 °C 12 mi 1.200 ft 350° 350° 11 - 17 kt METAR CYYC 301500Z 35011G17KT 12SM BKN012 OVC140 12/09 A3017 RMK SC6AC2 SLP233 DENSITY ALT 3800FT
08:44
M
12 °C 12 mi 1.400 ft 350° 350° 12 - 18 kt METAR CYYC 301444Z 35012G18KT 12SM BKN014 OVC130 12/09 A3016 RMK SC7AC1 SLP230 DENSITY ALT 3800FT
08:27
V
12 °C 9 mi 13.000 ft 340° 340° 15 - 20 kt METAR CYYC 301427Z 34015G20KT 9SM SCT013 BKN130 12/09 A3016 RMK SC3AC4 SLP228 DENSITY ALT 3800FT
08:18
M
12 °C 9 mi 1.400 ft 340° 340° 15 - 20 kt METAR CYYC 301418Z 34015G20KT 9SM BKN014 BKN130 12/09 A3016 RMK SC5AC2 SLP228 DENSITY ALT 3800FT
08:00
M
12 °C 9 mi 1.300 ft 340° 340° 15 - 21 kt METAR CYYC 301400Z 34015G21KT 9SM BKN013 BKN023 OVC130 12/09 A3015 RMK SC6SC1AC1 OCNL -SHRA / CVCTV CLD EMBD SLP225 DENSITY ALT 3900FT
07:29
M
12 °C 8 mi 1.300 ft 340° 340° 18 kt METAR CYYC 301329Z 34018KT 8SM -SHRA OVC013 12/09 A3015 RMK SC8 CVCTV CLD EMBD SLP225 DENSITY ALT 3900FT
07:00
M
12 °C 10 mi 1.500 ft 340° 340° 16 - 25 kt METAR CYYC 301300Z 34016G25KT 10SM BKN015 OVC110 12/09 A3014 RMK SC6AC2 INTMT -RA SLP218 DENSITY ALT 3900FT
Oudere gegevens

Met cookies volgen wij en derde partijen jouw internetgedrag binnen onze site. Als je verdergaat gaan we ervan uit dat je dit goedvindt. Meer info